createdAt,value
2017-12-12T00:00:32.961Z,976.45
2017-12-12T00:01:32.950Z,976.51
2017-12-12T00:02:32.936Z,976.56
2017-12-12T00:03:32.922Z,976.62
2017-12-12T00:04:32.908Z,976.60
2017-12-12T00:05:32.895Z,976.64
2017-12-12T00:06:32.884Z,976.65
2017-12-12T00:07:32.868Z,976.63
2017-12-12T00:08:32.854Z,976.66
2017-12-12T00:09:32.842Z,976.68
2017-12-12T00:10:32.834Z,976.73
2017-12-12T00:11:32.816Z,976.79
2017-12-12T00:12:32.803Z,976.83
2017-12-12T00:13:32.788Z,976.87
2017-12-12T00:14:32.781Z,976.90
2017-12-12T00:15:32.761Z,976.91
2017-12-12T00:16:32.748Z,976.98
2017-12-12T00:17:32.733Z,977.02
2017-12-12T00:18:32.726Z,977.01
2017-12-12T00:19:32.706Z,977.05
2017-12-12T00:20:32.693Z,977.05
2017-12-12T00:21:32.681Z,977.07
2017-12-12T00:22:32.667Z,977.08
2017-12-12T00:23:32.653Z,977.06
2017-12-12T00:24:32.641Z,977.12
2017-12-12T00:25:32.625Z,977.11
2017-12-12T00:26:32.620Z,977.15
2017-12-12T00:27:32.613Z,977.17
2017-12-12T00:28:32.586Z,977.22
2017-12-12T00:29:32.570Z,977.27
2017-12-12T00:30:32.580Z,977.31
2017-12-12T00:31:32.543Z,977.35
2017-12-12T00:32:32.535Z,977.40
2017-12-12T00:33:32.516Z,977.42
2017-12-12T00:34:32.505Z,977.48
2017-12-12T00:35:32.488Z,977.50
2017-12-12T00:36:32.477Z,977.57
2017-12-12T00:37:32.469Z,977.60
2017-12-12T00:38:32.452Z,977.61
2017-12-12T00:39:32.436Z,977.66
2017-12-12T00:40:32.421Z,977.64
2017-12-12T00:41:32.409Z,977.71
2017-12-12T00:42:32.401Z,977.77
2017-12-12T00:43:32.384Z,977.86
2017-12-12T00:44:32.371Z,977.90
2017-12-12T00:45:32.352Z,977.94
2017-12-12T00:46:32.340Z,977.94
2017-12-12T00:47:32.330Z,977.98
2017-12-12T00:48:32.315Z,978.03
2017-12-12T00:49:32.320Z,978.08
2017-12-12T00:50:32.284Z,978.13
2017-12-12T00:51:32.321Z,978.16
2017-12-12T00:52:32.259Z,978.20
2017-12-12T00:53:32.245Z,978.21
2017-12-12T00:54:32.242Z,978.19
2017-12-12T00:55:32.216Z,978.29
2017-12-12T00:56:32.204Z,978.30
2017-12-12T00:57:32.191Z,978.39
2017-12-12T00:58:32.175Z,978.38
2017-12-12T00:59:32.160Z,978.41
2017-12-12T01:00:32.146Z,978.44
2017-12-12T01:01:32.133Z,978.48
2017-12-12T01:02:32.118Z,978.51
2017-12-12T01:03:32.108Z,978.53
2017-12-12T01:04:32.091Z,978.53
2017-12-12T01:05:32.080Z,978.60
2017-12-12T01:06:32.065Z,978.63
2017-12-12T01:07:32.050Z,978.70
2017-12-12T01:08:32.036Z,978.66
2017-12-12T01:09:32.076Z,978.79
2017-12-12T01:10:32.011Z,978.80
2017-12-12T01:11:31.994Z,978.85
2017-12-12T01:12:31.981Z,978.90
2017-12-12T01:13:31.968Z,978.99
2017-12-12T01:14:31.958Z,979.03
2017-12-12T01:15:31.946Z,979.07
2017-12-12T01:16:31.928Z,979.10
2017-12-12T01:17:31.912Z,979.10
2017-12-12T01:18:31.905Z,979.10
2017-12-12T01:19:31.884Z,979.18
2017-12-12T01:20:31.922Z,979.26
2017-12-12T01:21:31.855Z,979.35
2017-12-12T01:22:31.842Z,979.32
2017-12-12T01:23:31.829Z,979.36
2017-12-12T01:24:31.814Z,979.46
2017-12-12T01:25:31.799Z,979.44
2017-12-12T01:26:31.786Z,979.52
2017-12-12T01:27:31.779Z,979.58
2017-12-12T01:28:31.757Z,979.56
2017-12-12T01:29:31.746Z,979.66
2017-12-12T01:30:31.734Z,979.71
2017-12-12T01:31:31.715Z,979.74
2017-12-12T01:32:31.708Z,979.78
2017-12-12T01:33:31.689Z,979.80
2017-12-12T01:34:31.675Z,979.81
2017-12-12T01:35:31.670Z,979.87
2017-12-12T01:36:31.647Z,979.87
2017-12-12T01:37:31.632Z,979.91
2017-12-12T01:38:31.625Z,979.95
2017-12-12T01:39:31.606Z,979.99
2017-12-12T01:40:31.589Z,980.02
2017-12-12T01:41:31.576Z,980.03
2017-12-12T01:42:31.562Z,980.08
2017-12-12T01:43:31.555Z,980.10
2017-12-12T01:44:31.533Z,980.13
2017-12-12T01:45:31.520Z,980.20
2017-12-12T01:46:31.507Z,980.21
2017-12-12T01:47:31.494Z,980.29
2017-12-12T01:48:31.488Z,980.31
2017-12-12T01:49:31.464Z,980.33
2017-12-12T01:50:31.450Z,980.36
2017-12-12T01:51:31.439Z,980.43
2017-12-12T01:52:31.420Z,980.44
2017-12-12T01:53:31.411Z,980.48
2017-12-12T01:54:31.395Z,980.48
2017-12-12T01:55:31.380Z,980.60
2017-12-12T01:56:31.374Z,980.60
2017-12-12T01:57:31.352Z,980.56
2017-12-12T01:58:31.341Z,980.68
2017-12-12T01:59:31.324Z,980.70
2017-12-12T02:00:31.310Z,980.79
2017-12-12T02:01:31.297Z,980.80
2017-12-12T02:02:31.283Z,980.88
2017-12-12T02:03:31.269Z,980.93
2017-12-12T02:04:31.255Z,980.94
2017-12-12T02:05:31.240Z,980.98
2017-12-12T02:06:31.226Z,980.98
2017-12-12T02:07:31.212Z,980.98
2017-12-12T02:08:31.200Z,981.05
2017-12-12T02:09:31.186Z,981.09
2017-12-12T02:10:52.175Z,981.14
2017-12-12T02:11:31.156Z,981.24
2017-12-12T02:12:31.141Z,981.23
2017-12-12T02:13:31.136Z,981.28
2017-12-12T02:14:31.112Z,981.30
2017-12-12T02:15:31.098Z,981.34
2017-12-12T02:16:31.085Z,981.37
2017-12-12T02:17:31.068Z,981.42
2017-12-12T02:18:31.055Z,981.45
2017-12-12T02:19:31.045Z,981.49
2017-12-12T02:20:31.027Z,981.44
2017-12-12T02:21:31.015Z,981.49
2017-12-12T02:22:30.998Z,981.58
2017-12-12T02:23:30.985Z,981.63
2017-12-12T02:24:30.969Z,981.69
2017-12-12T02:25:30.957Z,981.73
2017-12-12T02:26:30.948Z,981.76
2017-12-12T02:27:30.932Z,981.83
2017-12-12T02:28:30.916Z,981.80
2017-12-12T02:29:30.900Z,981.91
2017-12-12T02:30:30.891Z,981.91
2017-12-12T02:31:30.872Z,981.95
2017-12-12T02:32:30.859Z,982.01
2017-12-12T02:33:30.842Z,982.04
2017-12-12T02:34:30.833Z,982.08
2017-12-12T02:35:30.815Z,982.11
2017-12-12T02:36:30.802Z,982.16
2017-12-12T02:37:30.787Z,982.18
2017-12-12T02:38:30.771Z,982.25
2017-12-12T02:39:30.758Z,982.28
2017-12-12T02:40:30.742Z,982.31
2017-12-12T02:41:30.735Z,982.26
2017-12-12T02:42:30.717Z,982.32
2017-12-12T02:43:30.701Z,982.35
2017-12-12T02:44:30.687Z,982.39
2017-12-12T02:45:30.675Z,982.40
2017-12-12T02:46:30.659Z,982.42
2017-12-12T02:47:30.646Z,982.46
2017-12-12T02:48:30.630Z,982.49
2017-12-12T02:49:30.617Z,982.58
2017-12-12T02:50:30.600Z,982.58
2017-12-12T02:51:30.590Z,982.68
2017-12-12T02:52:30.574Z,982.70
2017-12-12T02:53:30.559Z,982.74
2017-12-12T02:54:30.548Z,982.70
2017-12-12T02:55:30.531Z,982.85
2017-12-12T02:56:30.514Z,982.82
2017-12-12T02:57:30.508Z,982.92
2017-12-12T02:58:30.487Z,982.97
2017-12-12T02:59:30.539Z,982.95
2017-12-12T03:00:30.460Z,983.04
2017-12-12T03:01:30.444Z,983.06
2017-12-12T03:02:30.431Z,983.09
2017-12-12T03:03:30.416Z,983.10
2017-12-12T03:04:30.403Z,983.08
2017-12-12T03:05:30.388Z,983.15
2017-12-12T03:06:30.374Z,983.21
2017-12-12T03:07:30.361Z,983.24
2017-12-12T03:08:30.347Z,983.36
2017-12-12T03:09:30.332Z,983.29
2017-12-12T03:10:30.319Z,983.36
2017-12-12T03:11:30.307Z,983.43
2017-12-12T03:12:30.289Z,983.45
2017-12-12T03:13:30.274Z,983.42
2017-12-12T03:14:30.262Z,983.49
2017-12-12T03:15:30.246Z,983.55
2017-12-12T03:16:30.231Z,983.57
2017-12-12T03:17:30.219Z,983.58
2017-12-12T03:18:30.204Z,983.61
2017-12-12T03:19:30.190Z,983.66
2017-12-12T03:20:30.174Z,983.74
2017-12-12T03:21:30.161Z,983.76
2017-12-12T03:22:30.145Z,983.87
2017-12-12T03:23:30.134Z,983.94
2017-12-12T03:24:30.122Z,983.99
2017-12-12T03:25:30.107Z,983.96
2017-12-12T03:26:30.099Z,984.07
2017-12-12T03:27:30.078Z,984.08
2017-12-12T03:28:30.060Z,984.11
2017-12-12T03:29:30.049Z,984.14
2017-12-12T03:30:30.036Z,984.20
2017-12-12T03:31:30.020Z,984.24
2017-12-12T03:32:30.029Z,984.24
2017-12-12T03:33:29.989Z,984.29
2017-12-12T03:34:29.976Z,984.33
2017-12-12T03:35:29.969Z,984.37
2017-12-12T03:36:29.948Z,984.43
2017-12-12T03:37:29.937Z,984.50
2017-12-12T03:38:29.921Z,984.51
2017-12-12T03:39:29.908Z,984.62
2017-12-12T03:40:29.892Z,984.68
2017-12-12T03:41:29.878Z,984.72
2017-12-12T03:42:29.865Z,984.71
2017-12-12T03:43:29.853Z,984.80
2017-12-12T03:44:29.835Z,984.80
2017-12-12T03:45:29.832Z,984.84
2017-12-12T03:46:29.808Z,984.85
2017-12-12T03:47:29.802Z,984.93
2017-12-12T03:48:29.781Z,984.96
2017-12-12T03:49:29.766Z,985.00
2017-12-12T03:50:29.766Z,985.04
2017-12-12T03:51:29.754Z,985.05
2017-12-12T03:52:29.722Z,985.17
2017-12-12T03:53:29.710Z,985.11
2017-12-12T03:54:29.709Z,985.23
2017-12-12T03:55:29.681Z,985.26
2017-12-12T03:56:29.668Z,985.27
2017-12-12T03:57:29.653Z,985.34
2017-12-12T03:58:29.638Z,985.35
2017-12-12T03:59:29.625Z,985.43
2017-12-12T04:00:29.611Z,985.51
2017-12-12T04:01:29.596Z,985.52
2017-12-12T04:02:29.582Z,985.55
2017-12-12T04:03:29.569Z,985.56
2017-12-12T04:04:29.554Z,985.67
2017-12-12T04:05:29.542Z,985.72
2017-12-12T04:06:29.526Z,985.71
2017-12-12T04:07:29.513Z,985.77
2017-12-12T04:08:29.498Z,985.78
2017-12-12T04:09:29.487Z,985.86
2017-12-12T04:10:29.470Z,985.93
2017-12-12T04:11:29.458Z,985.96
2017-12-12T04:12:29.452Z,985.97
2017-12-12T04:13:29.457Z,986.02
2017-12-12T04:14:29.440Z,986.05
2017-12-12T04:15:29.399Z,986.09
2017-12-12T04:16:29.385Z,986.12
2017-12-12T04:17:29.372Z,986.17
2017-12-12T04:18:29.363Z,986.19
2017-12-12T04:19:29.344Z,986.22
2017-12-12T04:20:29.334Z,986.27
2017-12-12T04:21:29.314Z,986.29
2017-12-12T04:22:29.303Z,986.26
2017-12-12T04:23:29.289Z,986.30
2017-12-12T04:24:29.273Z,986.39
2017-12-12T04:25:29.269Z,986.44
2017-12-12T04:26:29.246Z,986.49
2017-12-12T04:27:29.233Z,986.51
2017-12-12T04:28:29.230Z,986.54
2017-12-12T04:29:29.203Z,986.55
2017-12-12T04:30:29.191Z,986.59
2017-12-12T04:31:29.176Z,986.58
2017-12-12T04:32:29.160Z,986.65
2017-12-12T04:33:29.153Z,986.67
2017-12-12T04:34:29.137Z,986.67
2017-12-12T04:35:29.121Z,986.68
2017-12-12T04:36:29.107Z,986.82
2017-12-12T04:37:29.092Z,986.81
2017-12-12T04:38:29.082Z,986.90
2017-12-12T04:39:29.088Z,986.93
2017-12-12T04:40:29.054Z,987.04
2017-12-12T04:41:29.051Z,987.11
2017-12-12T04:42:29.048Z,987.09
2017-12-12T04:43:29.019Z,987.11
2017-12-12T04:44:28.993Z,987.17
2017-12-12T04:45:28.990Z,987.18
2017-12-12T04:46:28.966Z,987.26
2017-12-12T04:47:28.953Z,987.24
2017-12-12T04:48:28.944Z,987.35
2017-12-12T04:49:28.928Z,987.39
2017-12-12T04:50:28.913Z,987.40
2017-12-12T04:51:28.895Z,987.37
2017-12-12T04:52:28.885Z,987.46
2017-12-12T04:53:28.873Z,987.44
2017-12-12T04:54:28.853Z,987.52
2017-12-12T04:55:28.852Z,987.53
2017-12-12T04:56:28.828Z,987.60
2017-12-12T04:57:28.813Z,987.61
2017-12-12T04:58:28.800Z,987.63
2017-12-12T04:59:28.785Z,987.60
2017-12-12T05:00:28.771Z,987.70
2017-12-12T05:01:28.759Z,987.83
2017-12-12T05:02:28.743Z,987.88
2017-12-12T05:03:28.731Z,987.86
2017-12-12T05:04:28.715Z,987.94
2017-12-12T05:05:28.703Z,987.93
2017-12-12T05:06:28.686Z,987.99
2017-12-12T05:07:28.672Z,988.03
2017-12-12T05:08:28.659Z,988.09
2017-12-12T05:09:28.643Z,988.15
2017-12-12T05:10:28.645Z,988.18
2017-12-12T05:11:28.732Z,988.23
2017-12-12T05:12:28.601Z,988.25
2017-12-12T05:13:28.597Z,988.22
2017-12-12T05:14:28.574Z,988.33
2017-12-12T05:15:28.561Z,988.31
2017-12-12T05:16:28.547Z,988.37
2017-12-12T05:17:28.539Z,988.36
2017-12-12T05:18:28.517Z,988.49
2017-12-12T05:19:28.507Z,988.54
2017-12-12T05:20:28.491Z,988.53
2017-12-12T05:21:28.477Z,988.57
2017-12-12T05:22:28.462Z,988.62
2017-12-12T05:23:28.449Z,988.69
2017-12-12T05:24:28.433Z,988.66
2017-12-12T05:25:28.429Z,988.72
2017-12-12T05:26:28.406Z,988.72
2017-12-12T05:27:28.393Z,988.79
2017-12-12T05:28:28.379Z,988.76
2017-12-12T05:29:28.365Z,988.81
2017-12-12T05:30:28.354Z,988.84
2017-12-12T05:31:28.339Z,988.90
2017-12-12T05:32:28.322Z,988.91
2017-12-12T05:33:28.316Z,988.95
2017-12-12T05:34:28.296Z,989.00
2017-12-12T05:35:28.280Z,989.02
2017-12-12T05:36:28.267Z,989.04
2017-12-12T05:37:28.252Z,989.07
2017-12-12T05:38:28.249Z,989.16
2017-12-12T05:39:28.233Z,989.17
2017-12-12T05:40:28.211Z,989.14
2017-12-12T05:41:28.197Z,989.22
2017-12-12T05:42:28.182Z,989.28
2017-12-12T05:43:28.174Z,989.31
2017-12-12T05:44:28.153Z,989.30
2017-12-12T05:45:28.140Z,989.37
2017-12-12T05:46:28.136Z,989.33
2017-12-12T05:47:28.123Z,989.40
2017-12-12T05:48:28.098Z,989.38
2017-12-12T05:49:28.085Z,989.40
2017-12-12T05:50:28.069Z,989.48
2017-12-12T05:51:28.085Z,989.44
2017-12-12T05:52:28.041Z,989.47
2017-12-12T05:53:28.029Z,989.54
2017-12-12T05:54:28.016Z,989.54
2017-12-12T05:55:28.001Z,989.58
2017-12-12T05:56:27.987Z,989.63
2017-12-12T05:57:27.971Z,989.65
2017-12-12T05:58:27.962Z,989.68
2017-12-12T05:59:27.943Z,989.63
2017-12-12T06:00:27.929Z,989.67
2017-12-12T06:01:27.948Z,989.72
2017-12-12T06:02:27.901Z,989.77
2017-12-12T06:03:27.887Z,989.72
2017-12-12T06:04:27.888Z,989.75
2017-12-12T06:05:27.859Z,989.77
2017-12-12T06:06:27.846Z,989.87
2017-12-12T06:07:27.831Z,989.89
2017-12-12T06:08:27.818Z,989.87
2017-12-12T06:09:27.803Z,989.91
2017-12-12T06:10:27.789Z,989.96
2017-12-12T06:11:27.776Z,989.96
2017-12-12T06:12:27.759Z,989.98
2017-12-12T06:13:27.747Z,990.03
2017-12-12T06:14:27.733Z,990.05
2017-12-12T06:15:27.724Z,990.07
2017-12-12T06:16:27.705Z,990.07
2017-12-12T06:17:27.692Z,990.13
2017-12-12T06:18:27.676Z,990.12
2017-12-12T06:19:27.662Z,990.14
2017-12-12T06:20:27.648Z,990.23
2017-12-12T06:21:27.635Z,990.26
2017-12-12T06:22:27.625Z,990.30
2017-12-12T06:23:27.612Z,990.36
2017-12-12T06:24:27.592Z,990.41
2017-12-12T06:25:27.581Z,990.44
2017-12-12T06:26:27.566Z,990.44
2017-12-12T06:27:27.552Z,990.48
2017-12-12T06:28:27.540Z,990.51
2017-12-12T06:29:27.523Z,990.59
2017-12-12T06:30:27.520Z,990.53
2017-12-12T06:31:27.495Z,990.60
2017-12-12T06:32:27.479Z,990.62
2017-12-12T06:33:27.475Z,990.63
2017-12-12T06:34:27.455Z,990.64
2017-12-12T06:35:27.459Z,990.65
2017-12-12T06:36:27.426Z,990.74
2017-12-12T06:37:27.410Z,990.73
2017-12-12T06:38:27.402Z,990.80
2017-12-12T06:39:27.382Z,990.82
2017-12-12T06:40:27.367Z,990.78
2017-12-12T06:41:27.354Z,990.84
2017-12-12T06:42:27.339Z,990.99
2017-12-12T06:43:27.330Z,991.01
2017-12-12T06:44:27.312Z,991.07
2017-12-12T06:45:27.298Z,991.01
2017-12-12T06:46:27.287Z,991.06
2017-12-12T06:47:27.273Z,991.06
2017-12-12T06:48:27.260Z,991.10
2017-12-12T06:49:27.245Z,991.12
2017-12-12T06:50:27.232Z,991.13
2017-12-12T06:51:27.212Z,991.16
2017-12-12T06:52:27.199Z,991.08
2017-12-12T06:53:27.190Z,991.17
2017-12-12T06:54:27.187Z,991.23
2017-12-12T06:55:27.161Z,991.21
2017-12-12T06:56:27.142Z,991.25
2017-12-12T06:57:27.133Z,991.35
2017-12-12T06:58:27.115Z,991.36
2017-12-12T06:59:27.101Z,991.43
2017-12-12T07:00:27.086Z,991.50
2017-12-12T07:01:27.073Z,991.54
2017-12-12T07:02:27.060Z,991.60
2017-12-12T07:03:27.054Z,991.62
2017-12-12T07:04:27.037Z,991.60
2017-12-12T07:05:27.016Z,991.68
2017-12-12T07:06:27.002Z,991.67
2017-12-12T07:07:26.992Z,991.74
2017-12-12T07:08:26.976Z,991.74
2017-12-12T07:09:26.961Z,991.68
2017-12-12T07:10:26.947Z,991.77
2017-12-12T07:11:26.933Z,991.80
2017-12-12T07:12:26.922Z,991.85
2017-12-12T07:13:26.910Z,991.83
2017-12-12T07:14:26.890Z,991.87
2017-12-12T07:15:26.880Z,991.90
2017-12-12T07:16:26.863Z,991.94
2017-12-12T07:17:26.851Z,991.92
2017-12-12T07:18:26.838Z,992.04
2017-12-12T07:19:26.820Z,992.03
2017-12-12T07:20:26.805Z,992.02
2017-12-12T07:21:26.790Z,992.11
2017-12-12T07:22:26.778Z,992.12
2017-12-12T07:23:26.775Z,992.26
2017-12-12T07:24:26.749Z,992.20
2017-12-12T07:25:26.737Z,992.35
2017-12-12T07:26:26.724Z,992.38
2017-12-12T07:27:26.707Z,992.38
2017-12-12T07:28:26.706Z,992.45
2017-12-12T07:29:26.686Z,992.44
2017-12-12T07:30:26.678Z,992.49
2017-12-12T07:31:26.656Z,992.57
2017-12-12T07:32:26.636Z,992.58
2017-12-12T07:33:26.621Z,992.60
2017-12-12T07:34:26.612Z,992.55
2017-12-12T07:35:26.595Z,992.64
2017-12-12T07:36:26.580Z,992.66
2017-12-12T07:37:26.568Z,992.67
2017-12-12T07:38:26.556Z,992.67
2017-12-12T07:39:26.545Z,992.73
2017-12-12T07:40:26.524Z,992.75
2017-12-12T07:41:26.511Z,992.70
2017-12-12T07:42:26.498Z,992.80
2017-12-12T07:43:26.502Z,992.79
2017-12-12T07:44:26.473Z,992.78
2017-12-12T07:45:26.452Z,992.80
2017-12-12T07:46:26.440Z,992.85
2017-12-12T07:47:26.449Z,992.82
2017-12-12T07:48:26.520Z,992.88
2017-12-12T07:49:26.399Z,992.89
2017-12-12T07:50:26.384Z,992.91
2017-12-12T07:51:26.371Z,992.71
2017-12-12T07:52:26.371Z,992.93
2017-12-12T07:53:26.341Z,992.96
2017-12-12T07:54:26.327Z,993.00
2017-12-12T07:55:26.315Z,993.01
2017-12-12T07:56:26.300Z,993.09
2017-12-12T07:57:26.284Z,993.08
2017-12-12T07:58:26.277Z,993.14
2017-12-12T07:59:26.256Z,993.21
2017-12-12T08:00:26.242Z,993.16
2017-12-12T08:01:26.235Z,993.21
2017-12-12T08:02:26.218Z,993.30
2017-12-12T08:03:26.210Z,993.28
2017-12-12T08:04:26.191Z,993.31
2017-12-12T08:05:26.178Z,993.34
2017-12-12T08:06:26.159Z,993.26
2017-12-12T08:07:26.144Z,993.33
2017-12-12T08:08:26.136Z,993.39
2017-12-12T08:09:26.116Z,993.44
2017-12-12T08:10:26.115Z,993.38
2017-12-12T08:11:26.094Z,993.45
2017-12-12T08:12:26.075Z,993.51
2017-12-12T08:13:26.065Z,993.49
2017-12-12T08:14:26.079Z,993.57
2017-12-12T08:15:26.035Z,993.57
2017-12-12T08:16:26.019Z,993.55
2017-12-12T08:17:26.004Z,993.56
2017-12-12T08:18:25.999Z,993.60
2017-12-12T08:19:25.980Z,993.62
2017-12-12T08:20:25.966Z,993.65
2017-12-12T08:21:25.964Z,993.67
2017-12-12T08:22:25.934Z,993.67
2017-12-12T08:23:25.923Z,993.80
2017-12-12T08:24:25.908Z,993.80
2017-12-12T08:25:25.894Z,993.83
2017-12-12T08:26:25.881Z,993.83
2017-12-12T08:27:25.866Z,993.95
2017-12-12T08:28:25.852Z,993.97
2017-12-12T08:29:25.841Z,994.00
2017-12-12T08:30:25.824Z,994.05
2017-12-12T08:31:25.810Z,994.03
2017-12-12T08:32:25.796Z,994.08
2017-12-12T08:33:25.783Z,994.07
2017-12-12T08:34:25.769Z,994.09
2017-12-12T08:35:25.755Z,994.18
2017-12-12T08:36:25.740Z,994.17
2017-12-12T08:37:25.728Z,994.19
2017-12-12T08:38:25.712Z,994.24
2017-12-12T08:39:25.699Z,994.24
2017-12-12T08:40:25.688Z,994.23
2017-12-12T08:41:25.672Z,994.22
2017-12-12T08:42:25.658Z,994.27
2017-12-12T08:43:25.658Z,994.32
2017-12-12T08:44:25.629Z,994.29
2017-12-12T08:45:25.621Z,994.29
2017-12-12T08:46:25.602Z,994.32
2017-12-12T08:47:25.588Z,994.31
2017-12-12T08:48:25.576Z,994.34
2017-12-12T08:49:25.560Z,994.32
2017-12-12T08:50:25.567Z,994.39
2017-12-12T08:51:25.535Z,994.46
2017-12-12T08:52:25.537Z,994.45
2017-12-12T08:53:25.509Z,994.45
2017-12-12T08:54:25.493Z,994.46
2017-12-12T08:55:25.483Z,994.50
2017-12-12T08:56:25.467Z,994.48
2017-12-12T08:57:25.450Z,994.50
2017-12-12T08:58:25.438Z,994.53
2017-12-12T08:59:25.423Z,994.49
2017-12-12T09:00:25.409Z,994.59
2017-12-12T09:01:25.394Z,994.60
2017-12-12T09:02:25.382Z,994.55
2017-12-12T09:03:25.370Z,994.61
2017-12-12T09:04:25.355Z,994.67
2017-12-12T09:05:25.342Z,994.73
2017-12-12T09:06:25.327Z,994.74
2017-12-12T09:07:25.321Z,994.74
2017-12-12T09:08:25.299Z,994.81
2017-12-12T09:09:25.288Z,994.85
2017-12-12T09:10:25.271Z,994.79
2017-12-12T09:11:25.264Z,994.83
2017-12-12T09:12:25.248Z,994.85
2017-12-12T09:13:25.235Z,994.84
2017-12-12T09:14:25.233Z,994.72
2017-12-12T09:15:25.203Z,994.92
2017-12-12T09:16:25.253Z,994.98
2017-12-12T09:17:25.178Z,994.93
2017-12-12T09:18:25.164Z,995.02
2017-12-12T09:19:25.150Z,995.06
2017-12-12T09:20:25.136Z,995.09
2017-12-12T09:21:25.121Z,995.10
2017-12-12T09:22:25.111Z,995.13
2017-12-12T09:23:25.094Z,995.04
2017-12-12T09:24:25.084Z,995.08
2017-12-12T09:25:25.067Z,995.13
2017-12-12T09:26:25.059Z,995.21
2017-12-12T09:27:25.040Z,995.21
2017-12-12T09:28:25.026Z,995.26
2017-12-12T09:29:25.018Z,995.28
2017-12-12T09:30:24.998Z,995.25
2017-12-12T09:31:24.985Z,995.37
2017-12-12T09:32:24.970Z,995.32
2017-12-12T09:33:24.957Z,995.35
2017-12-12T09:34:24.950Z,995.40
2017-12-12T09:35:24.933Z,995.35
2017-12-12T09:36:24.920Z,995.56
2017-12-12T09:37:24.903Z,995.49
2017-12-12T09:38:24.892Z,995.53
2017-12-12T09:39:24.874Z,995.65
2017-12-12T09:40:24.859Z,995.70
2017-12-12T09:41:24.848Z,995.70
2017-12-12T09:42:24.838Z,995.81
2017-12-12T09:43:24.822Z,995.78
2017-12-12T09:44:24.806Z,995.83
2017-12-12T09:45:24.796Z,995.81
2017-12-12T09:46:24.784Z,995.80
2017-12-12T09:47:24.767Z,995.86
2017-12-12T09:48:24.757Z,995.86
2017-12-12T09:49:24.740Z,995.88
2017-12-12T09:50:24.724Z,995.89
2017-12-12T09:51:24.712Z,995.99
2017-12-12T09:52:24.697Z,995.99
2017-12-12T09:53:24.683Z,996.04
2017-12-12T09:54:24.672Z,996.03
2017-12-12T09:55:24.662Z,996.09
2017-12-12T09:56:24.644Z,996.09
2017-12-12T09:57:24.629Z,996.13
2017-12-12T09:58:24.618Z,996.15
2017-12-12T09:59:27.411Z,996.19
2017-12-12T10:00:28.528Z,996.14
2017-12-12T10:01:28.407Z,996.19
2017-12-12T10:02:26.348Z,996.23
2017-12-12T10:03:27.292Z,996.21
2017-12-12T10:04:24.541Z,996.23
2017-12-12T10:05:25.347Z,996.26
2017-12-12T10:06:24.511Z,996.25
2017-12-12T10:07:26.481Z,996.24
2017-12-12T10:08:26.457Z,996.35
2017-12-12T10:09:27.365Z,996.34
2017-12-12T10:10:29.440Z,996.33
2017-12-12T10:11:27.290Z,996.38
2017-12-12T10:12:24.657Z,996.39
2017-12-12T10:13:24.484Z,996.43
2017-12-12T10:14:28.466Z,996.42
2017-12-12T10:15:24.801Z,996.52
2017-12-12T10:16:24.403Z,996.48
2017-12-12T10:17:24.374Z,996.51
2017-12-12T10:18:24.428Z,996.53
2017-12-12T10:19:24.333Z,996.53
2017-12-12T10:20:24.353Z,996.54
2017-12-12T10:21:24.311Z,996.59
2017-12-12T10:22:24.304Z,996.61
2017-12-12T10:23:24.272Z,996.58
2017-12-12T10:24:24.257Z,996.60
2017-12-12T10:25:24.248Z,996.61
2017-12-12T10:26:24.231Z,996.61
2017-12-12T10:27:24.234Z,996.64
2017-12-12T10:28:24.204Z,996.69
2017-12-12T10:29:24.187Z,996.66
2017-12-12T10:30:24.178Z,996.66
2017-12-12T10:31:24.161Z,996.69
2017-12-12T10:32:24.147Z,996.75
2017-12-12T10:33:24.137Z,996.79
2017-12-12T10:34:24.119Z,996.74
2017-12-12T10:35:24.128Z,996.72
2017-12-12T10:36:24.092Z,996.81
2017-12-12T10:37:24.078Z,996.84
2017-12-12T10:38:24.065Z,996.88
2017-12-12T10:39:24.050Z,996.92
2017-12-12T10:40:24.047Z,996.86
2017-12-12T10:41:24.026Z,996.86
2017-12-12T10:42:24.011Z,996.89
2017-12-12T10:43:23.996Z,996.95
2017-12-12T10:44:23.981Z,996.97
2017-12-12T10:45:23.972Z,996.98
2017-12-12T10:46:23.952Z,997.00
2017-12-12T10:47:23.944Z,997.05
2017-12-12T10:48:23.924Z,997.05
2017-12-12T10:49:23.909Z,997.06
2017-12-12T10:50:23.898Z,997.10
2017-12-12T10:51:23.883Z,997.06
2017-12-12T10:52:23.871Z,997.17
2017-12-12T10:53:23.856Z,997.13
2017-12-12T10:54:23.839Z,997.18
2017-12-12T10:55:23.828Z,997.16
2017-12-12T10:56:23.815Z,997.25
2017-12-12T10:57:23.799Z,997.31
2017-12-12T10:58:23.786Z,997.43
2017-12-12T10:59:23.770Z,997.33
2017-12-12T11:00:23.758Z,997.40
2017-12-12T11:01:23.744Z,997.37
2017-12-12T11:02:23.727Z,997.40
2017-12-12T11:03:23.715Z,997.39
2017-12-12T11:04:23.701Z,997.40
2017-12-12T11:05:23.693Z,997.44
2017-12-12T11:06:23.677Z,997.49
2017-12-12T11:07:23.678Z,997.55
2017-12-12T11:08:23.643Z,997.49
2017-12-12T11:09:23.631Z,997.55
2017-12-12T11:10:23.623Z,997.61
2017-12-12T11:11:23.602Z,997.72
2017-12-12T11:12:23.585Z,997.60
2017-12-12T11:13:23.572Z,997.71
2017-12-12T11:14:23.563Z,997.68
2017-12-12T11:15:23.545Z,997.73
2017-12-12T11:16:23.532Z,997.76
2017-12-12T11:17:23.520Z,997.79
2017-12-12T11:18:23.502Z,997.76
2017-12-12T11:19:23.490Z,997.82
2017-12-12T11:20:23.477Z,997.85
2017-12-12T11:21:23.460Z,997.84
2017-12-12T11:22:23.444Z,997.96
2017-12-12T11:23:23.433Z,997.99
2017-12-12T11:24:23.417Z,997.96
2017-12-12T11:25:23.403Z,997.93
2017-12-12T11:26:23.391Z,997.99
2017-12-12T11:27:23.375Z,997.93
2017-12-12T11:28:23.362Z,997.96
2017-12-12T11:29:23.346Z,998.04
2017-12-12T11:30:23.333Z,998.02
2017-12-12T11:31:23.324Z,998.11
2017-12-12T11:32:23.314Z,998.09
2017-12-12T11:33:23.291Z,998.15
2017-12-12T11:34:23.278Z,998.16
2017-12-12T11:35:23.262Z,998.21
2017-12-12T11:36:23.261Z,998.14
2017-12-12T11:37:23.236Z,998.20
2017-12-12T11:38:23.221Z,998.24
2017-12-12T11:39:23.206Z,998.27
2017-12-12T11:40:23.192Z,998.28
2017-12-12T11:41:23.177Z,998.29
2017-12-12T11:42:23.163Z,998.27
2017-12-12T11:43:23.150Z,998.33
2017-12-12T11:44:23.138Z,998.37
2017-12-12T11:45:23.122Z,998.41
2017-12-12T11:46:23.107Z,998.39
2017-12-12T11:47:23.094Z,998.41
2017-12-12T11:48:23.084Z,998.46
2017-12-12T11:49:23.065Z,998.44
2017-12-12T11:50:23.051Z,998.47
2017-12-12T11:51:23.038Z,998.47
2017-12-12T11:52:23.023Z,998.47
2017-12-12T11:53:23.009Z,998.52
2017-12-12T11:54:22.996Z,998.47
2017-12-12T11:55:22.982Z,998.48
2017-12-12T11:56:22.969Z,998.49
2017-12-12T11:57:22.957Z,998.56
2017-12-12T11:58:22.940Z,998.56
2017-12-12T11:59:22.925Z,998.59
2017-12-12T12:00:22.914Z,998.54
2017-12-12T12:01:22.898Z,998.58
2017-12-12T12:02:22.890Z,998.61
2017-12-12T12:03:22.871Z,998.60
2017-12-12T12:04:22.856Z,998.57
2017-12-12T12:05:22.844Z,998.59
2017-12-12T12:06:22.829Z,998.62
2017-12-12T12:07:22.820Z,998.61
2017-12-12T12:08:22.845Z,998.66
2017-12-12T12:09:22.797Z,998.64
2017-12-12T12:10:22.783Z,998.66
2017-12-12T12:11:22.760Z,998.66
2017-12-12T12:12:22.748Z,998.66
2017-12-12T12:13:22.732Z,998.70
2017-12-12T12:14:22.718Z,998.66
2017-12-12T12:15:22.707Z,998.65
2017-12-12T12:16:22.691Z,998.77
2017-12-12T12:17:22.681Z,998.71
2017-12-12T12:18:22.663Z,998.74
2017-12-12T12:19:22.649Z,998.70
2017-12-12T12:20:22.634Z,998.77
2017-12-12T12:21:22.660Z,998.76
2017-12-12T12:22:22.608Z,998.83
2017-12-12T12:23:22.595Z,998.84
2017-12-12T12:24:22.583Z,998.85
2017-12-12T12:25:22.568Z,998.87
2017-12-12T12:26:22.552Z,998.93
2017-12-12T12:27:22.539Z,998.92
2017-12-12T12:28:22.527Z,998.94